createdAt,value
2024-01-09T00:00:25.609Z,101196.05
2024-01-09T00:03:14.239Z,101199.77
2024-01-09T00:05:42.952Z,101200.30
2024-01-09T00:08:11.641Z,101210.65
2024-01-09T00:10:40.091Z,101220.63
2024-01-09T00:13:08.634Z,101223.39
2024-01-09T00:15:37.019Z,101230.55
2024-01-09T00:18:05.893Z,101237.59
2024-01-09T00:20:34.691Z,101242.67
2024-01-09T00:23:03.349Z,101246.61
2024-01-09T00:25:32.869Z,101250.33
2024-01-09T00:28:01.430Z,101257.83
2024-01-09T00:30:29.883Z,101259.70
2024-01-09T00:32:58.479Z,101263.25
2024-01-09T00:35:27.172Z,101270.08
2024-01-09T00:37:55.811Z,101279.90
2024-01-09T00:40:24.336Z,101280.11
2024-01-09T00:42:52.807Z,101290.72
2024-01-09T00:45:21.232Z,101297.14
2024-01-09T00:47:49.860Z,101303.58
2024-01-09T00:50:18.811Z,101307.38
2024-01-09T00:52:48.240Z,101313.46
2024-01-09T00:55:19.051Z,101318.55
2024-01-09T00:57:47.419Z,101324.48
2024-01-09T01:00:19.950Z,101327.23
2024-01-09T01:02:48.656Z,101327.39
2024-01-09T01:05:18.612Z,101335.66
2024-01-09T01:07:47.268Z,101344.10
2024-01-09T01:10:18.709Z,101345.25
2024-01-09T01:12:49.510Z,101350.55
2024-01-09T01:15:18.185Z,101359.89
2024-01-09T01:17:46.895Z,101361.43
2024-01-09T01:20:16.431Z,101357.73
2024-01-09T01:22:44.960Z,101361.42
2024-01-09T01:25:13.598Z,101365.17
2024-01-09T01:27:42.349Z,101365.34
2024-01-09T01:30:11.031Z,101370.83
2024-01-09T01:32:40.569Z,101376.30
2024-01-09T01:35:09.155Z,101378.89
2024-01-09T01:37:37.753Z,101381.23
2024-01-09T01:40:07.267Z,101387.04
2024-01-09T01:42:35.790Z,101387.73
2024-01-09T01:45:17.809Z,101389.48
2024-01-09T01:47:47.251Z,101389.65
2024-01-09T01:50:16.827Z,101395.27
2024-01-09T01:52:47.173Z,101399.36
2024-01-09T01:55:19.353Z,101400.30
2024-01-09T01:57:49.401Z,101401.64
2024-01-09T02:00:19.600Z,101404.41
2024-01-09T02:02:52.023Z,101406.09
2024-01-09T02:05:23.247Z,101409.73
2024-01-09T02:07:54.685Z,101415.60
2024-01-09T02:10:24.473Z,101422.02
2024-01-09T02:12:53.051Z,101422.80
2024-01-09T02:15:21.738Z,101430.11
2024-01-09T02:17:50.437Z,101432.50
2024-01-09T02:20:23.514Z,101436.68
2024-01-09T02:22:52.014Z,101439.20
2024-01-09T02:25:20.465Z,101443.86
2024-01-09T02:27:51.498Z,101443.70
2024-01-09T02:30:20.741Z,101448.13
2024-01-09T02:32:49.560Z,101453.43
2024-01-09T02:35:19.432Z,101452.52
2024-01-09T02:37:48.413Z,101459.88
2024-01-09T02:40:17.059Z,101467.12
2024-01-09T02:42:45.496Z,101467.44
2024-01-09T02:45:15.039Z,101476.05
2024-01-09T02:47:44.292Z,101481.38
2024-01-09T02:50:13.200Z,101482.68
2024-01-09T02:52:41.718Z,101484.41
2024-01-09T02:55:10.601Z,101494.24
2024-01-09T02:57:42.051Z,101493.00
2024-01-09T03:00:11.805Z,101494.85
2024-01-09T03:02:40.348Z,101499.11
2024-01-09T03:05:09.873Z,101501.77
2024-01-09T03:07:38.508Z,101504.20
2024-01-09T03:10:08.090Z,101512.21
2024-01-09T03:12:36.569Z,101509.88
2024-01-09T03:15:06.076Z,101513.47
2024-01-09T03:17:34.627Z,101524.64
2024-01-09T03:20:03.708Z,101528.38
2024-01-09T03:22:32.217Z,101540.79
2024-01-09T03:25:00.636Z,101543.94
2024-01-09T03:27:29.804Z,101554.42
2024-01-09T03:29:59.648Z,101564.08
2024-01-09T03:32:28.149Z,101562.46
2024-01-09T03:34:56.918Z,101566.20
2024-01-09T03:37:26.253Z,101573.83
2024-01-09T03:39:54.887Z,101585.29
2024-01-09T03:42:23.431Z,101598.11
2024-01-09T03:44:51.957Z,101602.76
2024-01-09T03:47:20.521Z,101609.94
2024-01-09T03:49:49.307Z,101611.83
2024-01-09T03:52:17.884Z,101624.29
2024-01-09T03:54:46.726Z,101630.90
2024-01-09T03:57:17.193Z,101635.55
2024-01-09T03:59:46.968Z,101641.63
2024-01-09T04:02:15.917Z,101643.62
2024-01-09T04:04:44.558Z,101650.31
2024-01-09T04:07:13.357Z,101657.21
2024-01-09T04:09:42.052Z,101665.11
2024-01-09T04:12:10.729Z,101669.67
2024-01-09T04:14:39.304Z,101681.38
2024-01-09T04:17:07.890Z,101679.93
2024-01-09T04:19:40.385Z,101682.96
2024-01-09T04:22:08.912Z,101687.46
2024-01-09T04:24:37.444Z,101691.95
2024-01-09T04:27:06.141Z,101693.99
2024-01-09T04:29:35.074Z,101703.56
2024-01-09T04:32:04.709Z,101704.34
2024-01-09T04:34:33.779Z,101709.71
2024-01-09T04:37:02.171Z,101711.10
2024-01-09T04:39:30.972Z,101718.64
2024-01-09T04:41:59.707Z,101718.87
2024-01-09T04:44:28.463Z,101728.69
2024-01-09T04:46:57.006Z,101727.04
2024-01-09T04:49:25.577Z,101729.25
2024-01-09T04:51:54.494Z,101737.30
2024-01-09T04:54:23.271Z,101735.70
2024-01-09T04:56:51.858Z,101740.25
2024-01-09T04:59:20.353Z,101743.38
2024-01-09T05:01:51.760Z,101743.75
2024-01-09T05:04:20.170Z,101748.63
2024-01-09T05:06:48.697Z,101749.98
2024-01-09T05:09:17.314Z,101759.29
2024-01-09T05:11:46.471Z,101757.66
2024-01-09T05:14:14.912Z,101763.95
2024-01-09T05:16:43.421Z,101760.02
2024-01-09T05:19:12.132Z,101764.58
2024-01-09T05:21:40.826Z,101774.90
2024-01-09T05:24:09.248Z,101782.00
2024-01-09T05:26:37.734Z,101788.19
2024-01-09T05:29:06.452Z,101788.80
2024-01-09T05:31:43.090Z,101800.44
2024-01-09T05:34:11.786Z,101805.88
2024-01-09T05:36:40.608Z,101816.50
2024-01-09T05:39:09.043Z,101824.95
2024-01-09T05:41:37.669Z,101831.21
2024-01-09T05:44:06.653Z,101830.01
2024-01-09T05:46:35.622Z,101831.83
2024-01-09T05:49:04.449Z,101835.25
2024-01-09T05:51:33.926Z,101831.89
2024-01-09T05:54:02.482Z,101841.95
2024-01-09T05:56:30.943Z,101841.20
2024-01-09T05:58:59.512Z,101851.57
2024-01-09T06:01:28.179Z,101854.92
2024-01-09T06:03:56.758Z,101863.68
2024-01-09T06:06:25.787Z,101867.95
2024-01-09T06:08:54.604Z,101875.46
2024-01-09T06:11:23.381Z,101879.02
2024-01-09T06:13:51.871Z,101879.95
2024-01-09T06:16:20.480Z,101890.17
2024-01-09T06:18:49.292Z,101892.90
2024-01-09T06:21:18.523Z,101897.16
2024-01-09T06:23:49.083Z,101902.74
2024-01-09T06:26:18.012Z,101911.86
2024-01-09T06:28:46.535Z,101922.04
2024-01-09T06:31:15.066Z,101926.70
2024-01-09T06:33:44.002Z,101926.02
2024-01-09T06:36:12.748Z,101930.06
2024-01-09T06:38:41.512Z,101937.86
2024-01-09T06:41:10.048Z,101937.02
2024-01-09T06:43:38.863Z,101941.95
2024-01-09T06:46:08.862Z,101943.80
2024-01-09T06:48:37.862Z,101938.04
2024-01-09T06:51:06.734Z,101942.98
2024-01-09T06:53:35.489Z,101944.05
2024-01-09T06:56:10.665Z,101947.38
2024-01-09T06:58:39.388Z,101946.74
2024-01-09T07:01:11.086Z,101954.33
2024-01-09T07:03:42.351Z,101952.70
2024-01-09T07:06:12.107Z,101960.85
2024-01-09T07:08:41.048Z,101959.52
2024-01-09T07:11:09.816Z,101960.22
2024-01-09T07:13:38.167Z,101963.48
2024-01-09T07:16:07.447Z,101970.89
2024-01-09T07:18:36.131Z,101964.95
2024-01-09T07:21:04.839Z,101967.92
2024-01-09T07:23:33.410Z,101972.27
2024-01-09T07:26:02.253Z,101974.34
2024-01-09T07:28:32.707Z,101975.94
2024-01-09T07:31:04.620Z,101986.25
2024-01-09T07:33:33.470Z,101989.77
2024-01-09T07:36:02.600Z,101984.84
2024-01-09T07:38:31.304Z,101983.86
2024-01-09T07:41:01.169Z,101985.00
2024-01-09T07:43:30.573Z,101980.48
2024-01-09T07:45:59.150Z,101978.38
2024-01-09T07:48:27.869Z,101976.52
2024-01-09T07:50:57.826Z,101981.05
2024-01-09T07:53:26.382Z,101980.86
2024-01-09T07:55:54.893Z,101988.89
2024-01-09T07:58:23.304Z,101991.37
2024-01-09T08:00:51.880Z,101997.16
2024-01-09T08:03:22.744Z,101994.53
2024-01-09T08:05:51.976Z,101998.54
2024-01-09T08:08:20.732Z,102007.92
2024-01-09T08:10:49.348Z,102009.16
2024-01-09T08:13:17.870Z,102014.70
2024-01-09T08:15:46.254Z,102020.89
2024-01-09T08:18:16.067Z,102022.23
2024-01-09T08:20:46.945Z,102021.98
2024-01-09T08:23:17.795Z,102026.99
2024-01-09T08:25:47.671Z,102037.49
2024-01-09T08:28:16.135Z,102044.32
2024-01-09T08:30:45.420Z,102040.44
2024-01-09T08:33:14.951Z,102049.06
2024-01-09T08:35:45.454Z,102053.09
2024-01-09T08:38:15.453Z,102047.63
2024-01-09T08:40:46.648Z,102058.31
2024-01-09T08:43:16.049Z,102059.10
2024-01-09T08:45:45.039Z,102061.39
2024-01-09T08:48:14.848Z,102068.90
2024-01-09T08:50:44.476Z,102066.77
2024-01-09T08:53:13.274Z,102065.64
2024-01-09T08:55:41.927Z,102064.64
2024-01-09T08:58:11.070Z,102067.48
2024-01-09T09:00:39.594Z,102070.27
2024-01-09T09:03:08.352Z,102069.54
2024-01-09T09:05:37.810Z,102071.02
2024-01-09T09:08:06.807Z,102065.98
2024-01-09T09:10:35.226Z,102066.67
2024-01-09T09:13:05.123Z,102067.92
2024-01-09T09:15:33.710Z,102064.52
2024-01-09T09:18:02.648Z,102067.79
2024-01-09T09:20:31.431Z,102068.45
2024-01-09T09:23:00.278Z,102070.56
2024-01-09T09:25:28.970Z,102072.71
2024-01-09T09:27:57.342Z,102071.94
2024-01-09T09:30:28.452Z,102075.47
2024-01-09T09:33:00.027Z,102077.45
2024-01-09T09:35:29.717Z,102081.45
2024-01-09T09:37:58.435Z,102081.43
2024-01-09T09:40:28.459Z,102082.83
2024-01-09T09:42:59.597Z,102081.05
2024-01-09T09:45:28.814Z,102084.28
2024-01-09T09:47:58.528Z,102093.84
2024-01-09T09:50:27.970Z,102101.45
2024-01-09T09:52:58.220Z,102102.59
2024-01-09T09:55:26.907Z,102106.16
2024-01-09T09:57:55.698Z,102103.31
2024-01-09T10:00:24.505Z,102093.77
2024-01-09T10:02:55.300Z,102091.60
2024-01-09T10:05:24.354Z,102086.22
2024-01-09T10:07:54.641Z,102085.61
2024-01-09T10:10:23.438Z,102094.48
2024-01-09T10:12:55.180Z,102092.45
2024-01-09T10:15:23.795Z,102092.63
2024-01-09T10:17:53.257Z,102096.70
2024-01-09T10:20:24.362Z,102094.88
2024-01-09T10:22:56.280Z,102090.89
2024-01-09T10:25:25.927Z,102088.09
2024-01-09T10:27:56.195Z,102083.60
2024-01-09T10:30:25.197Z,102083.50
2024-01-09T10:32:54.334Z,102081.89
2024-01-09T10:35:23.204Z,102080.36
2024-01-09T10:37:54.553Z,102078.41
2024-01-09T10:40:27.614Z,102083.08
2024-01-09T10:42:56.062Z,102080.05
2024-01-09T10:45:25.864Z,102076.70
2024-01-09T10:47:55.933Z,102079.25
2024-01-09T10:50:25.733Z,102077.77
2024-01-09T10:52:54.716Z,102077.41
2024-01-09T10:55:25.063Z,102073.46
2024-01-09T10:57:53.741Z,102079.18
2024-01-09T11:00:23.025Z,102076.45
2024-01-09T11:02:53.238Z,102081.08
2024-01-09T11:05:22.248Z,102080.59
2024-01-09T11:07:56.442Z,102082.48
2024-01-09T11:10:26.176Z,102083.25
2024-01-09T11:12:55.171Z,102083.13
2024-01-09T11:15:27.799Z,102075.14
2024-01-09T11:18:09.277Z,102072.97
2024-01-09T11:20:38.352Z,102079.15
2024-01-09T11:23:06.900Z,102076.90
2024-01-09T11:25:36.709Z,102079.44
2024-01-09T11:28:07.891Z,102078.80
2024-01-09T11:30:38.857Z,102075.27
2024-01-09T11:33:33.958Z,102069.73
2024-01-09T11:36:07.219Z,102066.02
2024-01-09T11:38:36.573Z,102064.63
2024-01-09T11:41:11.340Z,102058.64
2024-01-09T11:44:00.548Z,102057.92
2024-01-09T11:46:32.157Z,102058.09
2024-01-09T11:49:02.164Z,102066.73
2024-01-09T11:51:33.169Z,102067.63
2024-01-09T11:54:03.171Z,102069.77
2024-01-09T11:56:31.880Z,102064.14
2024-01-09T11:59:01.537Z,102078.42
2024-01-09T12:01:30.134Z,102078.41
2024-01-09T12:03:59.502Z,102076.89
2024-01-09T12:06:32.983Z,102074.15
2024-01-09T12:09:02.165Z,102070.79
2024-01-09T12:11:31.286Z,102066.63
2024-01-09T12:14:04.107Z,102063.23
2024-01-09T12:16:33.771Z,102064.19
2024-01-09T12:19:03.738Z,102062.00
2024-01-09T12:21:35.470Z,102065.58
2024-01-09T12:26:38.809Z,102059.02
2024-01-09T12:29:08.061Z,102057.59
2024-01-09T12:31:37.670Z,102053.73
2024-01-09T12:34:07.268Z,102051.56
2024-01-09T12:36:36.151Z,102046.58
2024-01-09T12:39:09.735Z,102048.35
2024-01-09T12:41:40.738Z,102047.00
2024-01-09T12:44:10.992Z,102051.56
2024-01-09T12:46:44.724Z,102046.60
2024-01-09T12:49:14.705Z,102044.08
2024-01-09T12:51:43.969Z,102043.98
2024-01-09T12:54:21.843Z,102042.34
2024-01-09T12:56:51.586Z,102031.92
2024-01-09T12:59:24.546Z,102032.24
2024-01-09T13:01:54.978Z,102031.20
2024-01-09T13:04:23.338Z,102028.91
2024-01-09T13:06:52.330Z,102029.67
2024-01-09T13:09:21.440Z,102029.84
2024-01-09T13:11:50.766Z,102036.90
2024-01-09T13:14:20.090Z,102039.80
2024-01-09T13:16:53.069Z,102035.56
2024-01-09T13:19:21.843Z,102042.13
2024-01-09T13:23:44.556Z,102038.19
2024-01-09T13:24:39.696Z,102046.27
2024-01-09T13:27:08.441Z,102050.55
2024-01-09T13:30:46.784Z,102049.73
2024-01-09T13:32:26.247Z,102046.30
2024-01-09T13:34:56.569Z,102045.42
2024-01-09T13:37:25.202Z,102049.39
2024-01-09T13:39:58.198Z,102048.64
2024-01-09T13:42:28.003Z,102052.52
2024-01-09T13:44:58.883Z,102052.73
2024-01-09T13:47:28.875Z,102056.25
2024-01-09T13:52:30.629Z,102059.73
2024-01-09T13:55:00.334Z,102054.39
2024-01-09T13:57:29.117Z,102053.39
2024-01-09T13:59:59.465Z,102048.89
2024-01-09T14:02:30.849Z,102047.13
2024-01-09T14:04:59.711Z,102049.86
2024-01-09T14:07:28.836Z,102054.52
2024-01-09T14:09:58.486Z,102056.41
2024-01-09T14:12:27.296Z,102061.45
2024-01-09T14:14:55.957Z,102054.59
2024-01-09T14:17:25.294Z,102046.74
2024-01-09T14:19:54.917Z,102042.59
2024-01-09T14:22:26.310Z,102046.27
2024-01-09T14:24:55.105Z,102048.90
2024-01-09T14:27:24.610Z,102053.48
2024-01-09T14:29:56.550Z,102059.30
2024-01-09T14:32:26.412Z,102061.25
2024-01-09T14:34:56.241Z,102063.23
2024-01-09T14:37:26.621Z,102063.27
2024-01-09T14:39:55.402Z,102061.27
2024-01-09T14:42:25.124Z,102062.77
2024-01-09T14:44:56.424Z,102063.34
2024-01-09T14:47:30.509Z,102069.59
2024-01-09T14:49:59.282Z,102071.21
2024-01-09T14:52:28.913Z,102073.21
2024-01-09T14:54:57.788Z,102077.08
2024-01-09T14:57:26.461Z,102081.27
2024-01-09T14:59:55.344Z,102083.69
2024-01-09T15:02:24.483Z,102085.39
2024-01-09T15:04:53.540Z,102092.55
2024-01-09T15:07:22.420Z,102100.78
2024-01-09T15:09:53.807Z,102103.45
2024-01-09T15:12:22.420Z,102110.35
2024-01-09T15:14:55.122Z,102106.16
2024-01-09T15:17:23.750Z,102103.95
2024-01-09T15:19:53.973Z,102111.64
2024-01-09T15:22:22.718Z,102119.64
2024-01-09T15:24:51.259Z,102123.55
2024-01-09T15:27:19.885Z,102129.91
2024-01-09T15:29:50.888Z,102129.80
2024-01-09T15:32:20.615Z,102133.73
2024-01-09T15:34:49.571Z,102132.02
2024-01-09T15:37:18.697Z,102136.24
2024-01-09T15:39:48.032Z,102137.46
2024-01-09T15:42:17.322Z,102137.60
2024-01-09T15:44:46.024Z,102138.19
2024-01-09T15:47:14.512Z,102141.10
2024-01-09T15:49:43.426Z,102142.31
2024-01-09T15:52:12.204Z,102153.66
2024-01-09T15:54:43.075Z,102157.66
2024-01-09T15:57:12.910Z,102158.79
2024-01-09T15:59:41.834Z,102160.73
2024-01-09T16:02:10.930Z,102160.34
2024-01-09T16:04:46.084Z,102159.19
2024-01-09T16:07:15.231Z,102158.11
2024-01-09T16:09:44.171Z,102160.48
2024-01-09T16:12:16.107Z,102162.48
2024-01-09T16:14:44.691Z,102161.58
2024-01-09T16:17:21.365Z,102157.86
2024-01-09T16:19:50.568Z,102157.42
2024-01-09T16:22:22.307Z,102155.81
2024-01-09T16:24:51.710Z,102163.95
2024-01-09T16:27:21.967Z,102159.44
2024-01-09T16:29:50.709Z,102162.09
2024-01-09T16:32:19.409Z,102160.62
2024-01-09T16:34:49.214Z,102158.35
2024-01-09T16:37:18.095Z,102160.52
2024-01-09T16:39:46.991Z,102163.09
2024-01-09T16:42:15.783Z,102162.42
2024-01-09T16:44:44.669Z,102162.56
2024-01-09T16:47:13.980Z,102165.48
2024-01-09T16:49:43.657Z,102169.77
2024-01-09T16:52:12.470Z,102173.37
2024-01-09T16:54:41.500Z,102176.29
2024-01-09T16:57:12.037Z,102173.64
2024-01-09T16:59:41.493Z,102172.88
2024-01-09T17:02:13.248Z,102180.93
2024-01-09T17:04:42.915Z,102182.13
2024-01-09T17:07:11.640Z,102182.89
2024-01-09T17:09:44.219Z,102184.05
2024-01-09T17:12:12.895Z,102179.52
2024-01-09T17:14:46.048Z,102179.40
2024-01-09T17:17:15.006Z,102178.99
2024-01-09T17:19:45.138Z,102180.52
2024-01-09T17:22:14.093Z,102181.17
2024-01-09T17:24:44.937Z,102184.77
2024-01-09T17:27:13.514Z,102185.87
2024-01-09T17:29:42.695Z,102187.30
2024-01-09T17:32:11.892Z,102189.35
2024-01-09T17:34:44.611Z,102187.11
2024-01-09T17:37:14.293Z,102185.89
2024-01-09T17:39:45.118Z,102194.06
2024-01-09T17:42:13.616Z,102201.21
2024-01-09T17:44:42.297Z,102204.38
2024-01-09T17:47:11.099Z,102201.55
2024-01-09T17:49:40.201Z,102207.66
2024-01-09T17:52:10.301Z,102209.30
2024-01-09T17:54:39.102Z,102210.83
2024-01-09T17:57:07.773Z,102212.83
2024-01-09T17:59:37.076Z,102207.04
2024-01-09T18:02:06.250Z,102208.69
2024-01-09T18:04:38.464Z,102201.20
2024-01-09T18:07:08.863Z,102200.84
2024-01-09T18:09:37.650Z,102199.48
2024-01-09T18:12:07.206Z,102198.38
2024-01-09T18:14:35.839Z,102195.33
2024-01-09T18:17:08.159Z,102194.11
2024-01-09T18:19:36.822Z,102194.61
2024-01-09T18:22:05.595Z,102197.93
2024-01-09T18:24:34.887Z,102199.57
2024-01-09T18:27:06.392Z,102200.89
2024-01-09T18:29:36.812Z,102195.55
2024-01-09T18:32:06.315Z,102195.26
2024-01-09T18:34:38.229Z,102192.61
2024-01-09T18:37:06.923Z,102189.31
2024-01-09T18:39:37.683Z,102188.35
2024-01-09T18:42:07.057Z,102188.48
2024-01-09T18:44:35.644Z,102186.35
2024-01-09T18:47:05.216Z,102184.34
2024-01-09T18:49:35.872Z,102185.86
2024-01-09T18:52:06.674Z,102188.27
2024-01-09T18:54:35.119Z,102188.58
2024-01-09T18:57:05.006Z,102189.73
2024-01-09T18:59:34.104Z,102192.88
2024-01-09T19:02:03.340Z,102196.09
2024-01-09T19:04:33.294Z,102196.70
2024-01-09T19:07:02.025Z,102190.07
2024-01-09T19:09:30.795Z,102189.44
2024-01-09T19:11:59.394Z,102186.52
2024-01-09T19:14:29.418Z,102187.27
2024-01-09T19:17:00.517Z,102180.62
2024-01-09T19:19:30.895Z,102182.63
2024-01-09T19:21:59.483Z,102182.55
2024-01-09T19:24:28.502Z,102183.29
2024-01-09T19:26:58.022Z,102184.76
2024-01-09T19:29:26.611Z,102187.60
2024-01-09T19:31:55.359Z,102187.13
2024-01-09T19:34:24.245Z,102188.42
2024-01-09T19:36:53.804Z,102186.46
2024-01-09T19:39:22.504Z,102189.23
2024-01-09T19:41:51.264Z,102193.85
2024-01-09T19:44:22.119Z,102188.65
2024-01-09T19:46:51.319Z,102191.92
2024-01-09T19:49:21.170Z,102190.61
2024-01-09T19:51:54.143Z,102182.27
2024-01-09T19:54:22.684Z,102185.41
2024-01-09T19:56:51.370Z,102182.92
2024-01-09T19:59:20.018Z,102182.49
2024-01-09T20:01:49.172Z,102181.07
2024-01-09T20:04:19.545Z,102182.36
2024-01-09T20:06:48.473Z,102176.73
2024-01-09T20:09:19.136Z,102178.86
2024-01-09T20:11:48.233Z,102180.05
2024-01-09T20:14:17.524Z,102174.31
2024-01-09T20:16:46.285Z,102173.84
2024-01-09T20:19:16.208Z,102170.40
2024-01-09T20:21:46.933Z,102164.84
2024-01-09T20:24:17.255Z,102168.11
2024-01-09T20:26:50.602Z,102166.14
2024-01-09T20:29:19.366Z,102168.97
2024-01-09T20:31:48.338Z,102167.65
2024-01-09T20:34:17.314Z,102165.27
2024-01-09T20:36:46.412Z,102162.73
2024-01-09T20:39:17.815Z,102165.54
2024-01-09T20:41:46.650Z,102166.55
2024-01-09T20:44:20.284Z,102167.86
2024-01-09T20:46:49.872Z,102168.64
2024-01-09T20:49:18.811Z,102169.06
2024-01-09T20:51:49.127Z,102161.13
2024-01-09T20:54:17.659Z,102169.31
2024-01-09T20:56:49.547Z,102167.73
2024-01-09T20:59:18.974Z,102169.89
2024-01-09T21:01:49.849Z,102168.89
2024-01-09T21:04:21.134Z,102165.74
2024-01-09T21:06:51.368Z,102166.40
2024-01-09T21:09:20.225Z,102165.80
2024-01-09T21:11:49.932Z,102163.16
2024-01-09T21:14:19.072Z,102159.69
2024-01-09T21:16:47.951Z,102158.96
2024-01-09T21:19:18.208Z,102158.95
2024-01-09T21:21:47.237Z,102158.67
2024-01-09T21:24:16.316Z,102148.44
2024-01-09T21:26:45.016Z,102147.66
2024-01-09T21:29:13.774Z,102149.82
2024-01-09T21:31:42.490Z,102150.85
2024-01-09T21:34:11.038Z,102150.29
2024-01-09T21:36:43.230Z,102146.83
2024-01-09T21:39:12.223Z,102141.88
2024-01-09T21:41:41.168Z,102140.77
2024-01-09T21:44:10.185Z,102133.11
2024-01-09T21:46:39.304Z,102135.98
2024-01-09T21:49:07.932Z,102138.17
2024-01-09T21:51:36.775Z,102131.06
2024-01-09T21:54:06.374Z,102128.52
2024-01-09T21:56:34.772Z,102126.46
2024-01-09T21:59:05.540Z,102120.80
2024-01-09T22:01:34.718Z,102118.96
2024-01-09T22:04:03.657Z,102118.09
2024-01-09T22:06:34.255Z,102110.88
2024-01-09T22:09:03.205Z,102110.14
2024-01-09T22:11:31.743Z,102110.55
2024-01-09T22:14:00.392Z,102107.46
2024-01-09T22:16:29.263Z,102107.52
2024-01-09T22:18:57.900Z,102106.85
2024-01-09T22:21:27.650Z,102099.20
2024-01-09T22:23:56.146Z,102098.13
2024-01-09T22:26:24.920Z,102093.94
2024-01-09T22:28:53.723Z,102092.07
2024-01-09T22:31:22.704Z,102087.00
2024-01-09T22:33:51.682Z,102085.96
2024-01-09T22:36:20.595Z,102077.38
2024-01-09T22:38:49.725Z,102074.05
2024-01-09T22:41:21.639Z,102072.90
2024-01-09T22:43:50.580Z,102071.73
2024-01-09T22:46:19.634Z,102065.80
2024-01-09T22:48:48.037Z,102064.71
2024-01-09T22:51:18.116Z,102062.90
2024-01-09T22:53:47.838Z,102055.98
2024-01-09T22:56:18.926Z,102055.73
2024-01-09T22:58:48.338Z,102055.39
2024-01-09T23:01:18.326Z,102051.77
2024-01-09T23:03:46.981Z,102052.77
2024-01-09T23:06:15.930Z,102054.38
2024-01-09T23:08:44.776Z,102055.14
2024-01-09T23:11:13.408Z,102049.36
2024-01-09T23:13:44.920Z,102048.66
2024-01-09T23:16:13.695Z,102048.04
2024-01-09T23:18:42.460Z,102046.52
2024-01-09T23:21:13.006Z,102046.69
2024-01-09T23:23:45.073Z,102042.30
2024-01-09T23:26:13.420Z,102042.56
2024-01-09T23:28:41.841Z,102040.16
2024-01-09T23:31:10.695Z,102040.06
2024-01-09T23:33:39.632Z,102040.59
2024-01-09T23:36:09.264Z,102035.37
2024-01-09T23:38:38.005Z,102039.20
2024-01-09T23:41:06.938Z,102041.92
2024-01-09T23:43:36.378Z,102042.41
2024-01-09T23:46:05.385Z,102036.04
2024-01-09T23:48:34.170Z,102031.84
2024-01-09T23:51:04.182Z,102031.92
2024-01-09T23:53:32.790Z,102033.11
2024-01-09T23:56:02.271Z,102036.48
2024-01-09T23:58:32.339Z,102034.88
